Time;durP1;ratioP1;P1;durP2;ratioP2;P2;SDS_P1;SDS_P2;PMS_P1;PMS_P2;Temp;Humidity;BMP_temperature;BMP_pressure;BME280_temperature;BME280_humidity;BME280_pressure;Samples;Min_cycle;Max_cycle;Signal;HPM_P1;HPM_P2
2022/01/16 00:04:30;;;;;;;46.72;20.02;;;2.90;99.90;;;;;;5068740;28;20092;-66
2022/01/16 00:06:55;;;;;;;45.55;20.38;;;2.90;99.90;;;;;;5069653;28;20070;-66
2022/01/16 00:09:21;;;;;;;50.25;20.88;;;3.20;99.90;;;;;;5051766;28;20412;-66
2022/01/16 00:11:47;;;;;;;41.13;16.63;;;2.90;99.90;;;;;;5069522;28;20131;-66
2022/01/16 00:14:13;;;;;;;52.25;20.60;;;2.80;99.90;;;;;;5068569;28;20110;-66
2022/01/16 00:16:41;;;;;;;53.63;21.67;;;2.80;99.90;;;;;;5065913;28;20071;-66
2022/01/16 00:19:07;;;;;;;47.13;19.25;;;3.70;99.90;;;;;;5050372;28;20052;-66
2022/01/16 00:21:37;;;;;;;53.83;21.42;;;2.70;99.90;;;;;;5066782;28;20396;-66
2022/01/16 00:24:04;;;;;;;59.47;23.73;;;2.90;99.90;;;;;;5068423;28;20113;-66
2022/01/16 00:26:30;;;;;;;56.88;23.10;;;2.60;99.90;;;;;;5066604;28;20060;-65
2022/01/16 00:28:56;;;;;;;53.10;22.15;;;2.60;99.90;;;;;;5068164;28;20116;-66
2022/01/16 00:31:23;;;;;;;47.78;20.70;;;2.50;99.90;;;;;;5049177;28;20040;-66
2022/01/16 00:33:49;;;;;;;47.65;21.27;;;2.50;99.90;;;;;;5067616;28;20052;-65
2022/01/16 00:36:17;;;;;;;50.00;20.58;;;2.50;99.90;;;;;;5069131;28;20095;-66
2022/01/16 00:38:44;;;;;;;51.15;21.38;;;2.50;99.90;;;;;;5071915;28;20048;-66
2022/01/16 00:41:15;;;;;;;49.58;21.65;;;2.50;99.90;;;;;;5072061;28;20056;-66
2022/01/16 00:43:41;;;;;;;48.70;20.85;;;2.50;99.90;;;;;;5075643;28;20044;-65
2022/01/16 00:46:07;;;;;;;49.90;21.13;;;2.40;99.90;;;;;;5073057;28;20059;-66
2022/01/16 00:48:32;;;;;;;54.58;21.98;;;2.50;99.90;;;;;;5071335;28;20052;-66
2022/01/16 00:50:58;;;;;;;52.40;21.83;;;2.50;99.90;;;;;;5070644;28;20076;-66
2022/01/16 00:53:24;;;;;;;50.38;21.83;;;2.80;99.90;;;;;;5068679;28;20056;-65
2022/01/16 00:55:50;;;;;;;48.70;21.13;;;2.40;99.90;;;;;;5036205;28;20420;-66
2022/01/16 00:58:15;;;;;;;49.53;20.35;;;2.40;99.90;;;;;;5071274;28;20055;-66
2022/01/16 01:00:41;;;;;;;47.35;19.73;;;2.40;99.90;;;;;;5068920;28;20178;-66
2022/01/16 01:03:07;;;;;;;46.85;20.83;;;2.40;99.90;;;;;;5064250;28;20102;-65
2022/01/16 01:05:34;;;;;;;46.53;19.88;;;2.40;99.90;;;;;;5070416;28;20049;-66
2022/01/16 01:08:00;;;;;;;58.85;23.67;;;2.30;99.90;;;;;;5070820;28;20504;-67
2022/01/16 01:10:35;;;;;;;57.90;24.52;;;2.30;99.90;;;;;;5053299;28;20362;-67
2022/01/16 01:13:23;;;;;;;66.05;25.10;;;2.30;99.90;;;;;;5070544;28;20551;-67
2022/01/16 01:15:57;;;;;;;59.03;24.17;;;3.60;99.90;;;;;;5048095;28;20120;-65
2022/01/16 01:18:23;;;;;;;65.30;27.05;;;3.60;99.90;;;;;;5067147;28;20060;-66
2022/01/16 01:20:51;;;;;;;65.50;25.38;;;2.30;99.90;;;;;;5071540;28;20057;-66
2022/01/16 01:23:17;;;;;;;65.03;25.77;;;2.30;99.90;;;;;;5053425;28;20095;-66
2022/01/16 01:25:43;;;;;;;68.72;27.77;;;2.30;99.90;;;;;;5070011;28;20049;-66
2022/01/16 01:28:09;;;;;;;63.75;25.52;;;2.30;99.90;;;;;;5070699;28;20054;-65
2022/01/16 01:30:37;;;;;;;69.90;28.20;;;2.20;99.90;;;;;;5072070;28;20477;-66
2022/01/16 01:33:03;;;;;;;68.57;25.95;;;3.20;99.90;;;;;;5070041;28;20093;-66
2022/01/16 01:35:28;;;;;;;73.18;27.17;;;2.30;99.90;;;;;;5052506;28;20100;-66
2022/01/16 01:37:54;;;;;;;65.65;26.27;;;2.40;99.90;;;;;;5070622;28;20135;-65
2022/01/16 01:40:26;;;;;;;69.38;27.88;;;2.40;99.90;;;;;;5053080;28;20102;-65
2022/01/16 01:51:26;;;;;;;57.28;23.50;;;2.30;99.90;;;;;;5066376;28;20084;-66
2022/01/16 01:53:55;;;;;;;67.80;27.52;;;2.40;99.90;;;;;;5056200;28;20131;-66
2022/01/16 01:56:23;;;;;;;69.43;28.90;;;2.40;99.90;;;;;;5069432;28;20109;-66
2022/01/16 01:58:50;;;;;;;63.55;28.25;;;2.30;99.90;;;;;;5052319;28;20143;-66
2022/01/16 02:01:17;;;;;;;68.38;29.90;;;2.40;99.90;;;;;;5050844;28;20595;-66
2022/01/16 02:03:42;;;;;;;69.05;29.13;;;2.40;99.90;;;;;;5070337;28;20399;-66
2022/01/16 02:06:08;;;;;;;73.95;29.17;;;2.40;99.90;;;;;;5051878;28;20122;-66
2022/01/16 02:08:37;;;;;;;68.70;29.17;;;2.30;99.90;;;;;;5052053;28;20563;-65
2022/01/16 02:11:04;;;;;;;65.78;28.45;;;2.30;99.90;;;;;;5069406;28;20037;-65
2022/01/16 02:13:34;;;;;;;69.13;27.88;;;2.30;99.90;;;;;;5069888;28;20409;-66
2022/01/16 02:34:46;;;;;;;82.03;31.50;;;2.30;99.90;;;;;;5031855;28;20044;-65
2022/01/16 02:37:14;;;;;;;81.00;29.92;;;2.30;99.90;;;;;;5069026;28;20530;-65
2022/01/16 02:39:45;;;;;;;79.28;30.38;;;2.30;99.90;;;;;;5069510;28;20075;-66
2022/01/16 02:42:12;;;;;;;79.82;30.48;;;2.30;99.90;;;;;;5068808;28;20044;-66
2022/01/16 02:44:50;;;;;;;81.18;30.30;;;2.30;99.90;;;;;;5051812;28;20044;-66
2022/01/16 02:47:20;;;;;;;82.68;29.38;;;2.30;99.90;;;;;;5068982;28;20052;-66
2022/01/16 02:49:49;;;;;;;84.93;28.92;;;2.30;99.90;;;;;;5070957;28;20037;-66
2022/01/16 02:52:17;;;;;;;78.70;27.30;;;2.20;99.90;;;;;;5069336;28;20400;-65
2022/01/16 02:54:46;;;;;;;82.03;28.65;;;2.30;99.90;;;;;;5062943;28;20137;-65
2022/01/16 02:57:17;;;;;;;90.03;31.55;;;2.20;99.90;;;;;;5070262;28;20410;-66
2022/01/16 02:59:50;;;;;;;79.38;29.75;;;2.20;99.90;;;;;;5068989;28;20581;-65
2022/01/16 03:02:17;;;;;;;76.28;28.60;;;2.20;99.90;;;;;;5067942;28;20141;-66
2022/01/16 03:04:43;;;;;;;77.63;26.85;;;2.20;99.90;;;;;;5069066;28;20063;-66
2022/01/16 03:07:10;;;;;;;85.85;29.88;;;2.30;99.90;;;;;;5051568;28;20477;-66
2022/01/16 03:12:09;;;;;;;85.03;29.42;;;2.20;99.90;;;;;;5069945;28;20063;-65
2022/01/16 03:14:35;;;;;;;76.80;28.33;;;2.20;99.90;;;;;;5034937;28;20097;-66
2022/01/16 03:17:01;;;;;;;84.57;30.35;;;2.20;99.90;;;;;;5049785;28;20065;-65
2022/01/16 03:22:11;;;;;;;89.70;29.60;;;2.20;99.90;;;;;;5054593;28;20057;-65
2022/01/16 03:24:39;;;;;;;90.28;29.63;;;2.20;99.90;;;;;;5050547;28;20637;-65
2022/01/16 03:27:07;;;;;;;87.72;29.67;;;2.20;99.90;;;;;;5067966;28;20052;-66
2022/01/16 03:29:34;;;;;;;83.53;29.55;;;2.20;99.90;;;;;;5069087;28;20443;-66
2022/01/16 03:32:01;;;;;;;87.68;29.38;;;2.20;99.90;;;;;;5066389;28;20055;-66
2022/01/16 03:34:27;;;;;;;87.00;29.83;;;2.20;99.90;;;;;;5050567;28;20056;-66
2022/01/16 03:36:53;;;;;;;86.10;28.50;;;2.30;99.90;;;;;;5068593;28;20052;-66
2022/01/16 03:39:19;;;;;;;82.15;29.00;;;2.30;99.90;;;;;;5066856;28;20048;-66
2022/01/16 03:41:45;;;;;;;88.53;30.95;;;2.40;99.90;;;;;;5068443;28;20110;-66
2022/01/16 03:44:11;;;;;;;90.47;31.98;;;2.30;99.90;;;;;;5049789;28;20049;-66
2022/01/16 03:46:41;;;;;;;81.28;28.80;;;2.40;99.90;;;;;;5043113;28;20060;-66
2022/01/16 03:49:18;;;;;;;92.78;31.70;;;2.40;99.90;;;;;;5069197;28;20048;-66
2022/01/16 03:51:46;;;;;;;93.40;30.00;;;2.30;99.90;;;;;;5050173;28;20135;-66
2022/01/16 03:54:14;;;;;;;78.50;27.80;;;2.40;99.90;;;;;;5067487;28;20511;-66
2022/01/16 03:56:40;;;;;;;96.10;32.47;;;2.40;99.90;;;;;;5050208;28;20531;-66
2022/01/16 03:59:06;;;;;;;86.85;29.20;;;2.50;99.90;;;;;;5053564;28;20096;-66
2022/01/16 04:01:32;;;;;;;96.75;32.08;;;2.40;99.90;;;;;;5069486;28;20088;-66
2022/01/16 04:03:58;;;;;;;100.78;32.78;;;2.40;99.90;;;;;;5069196;28;20048;-66
2022/01/16 04:06:24;;;;;;;99.47;30.92;;;2.40;99.90;;;;;;5050135;28;20057;-66
2022/01/16 04:08:53;;;;;;;95.47;29.92;;;2.40;99.90;;;;;;5066558;28;20044;-66
2022/01/16 04:11:20;;;;;;;103.95;31.08;;;2.40;99.90;;;;;;5054995;28;20055;-66
2022/01/16 04:13:55;;;;;;;102.05;31.95;;;2.40;99.90;;;;;;5068066;28;20056;-66
2022/01/16 04:16:22;;;;;;;114.93;34.92;;;2.50;99.90;;;;;;5067631;28;20052;-66
2022/01/16 04:18:50;;;;;;;108.25;33.35;;;2.50;99.90;;;;;;5068579;28;20049;-65
2022/01/16 04:21:21;;;;;;;112.82;34.85;;;2.40;99.90;;;;;;5067072;28;20049;-66
2022/01/16 04:23:48;;;;;;;115.45;34.83;;;2.40;99.90;;;;;;5068301;28;20090;-66
2022/01/16 04:26:14;;;;;;;105.93;33.17;;;2.40;99.90;;;;;;5067063;28;20053;-65
2022/01/16 04:28:41;;;;;;;108.68;32.97;;;2.50;99.90;;;;;;5068018;28;20071;-65
2022/01/16 04:31:07;;;;;;;111.88;31.88;;;2.50;99.90;;;;;;5066344;28;20087;-65
2022/01/16 04:33:33;;;;;;;109.68;33.72;;;2.50;99.90;;;;;;5054074;28;20060;-66
2022/01/16 04:35:58;;;;;;;109.10;33.03;;;2.50;99.90;;;;;;5054664;28;20045;-66
2022/01/16 04:38:24;;;;;;;116.15;34.88;;;2.50;99.90;;;;;;5050045;28;20350;-65
2022/01/16 04:43:51;;;;;;;113.22;33.08;;;2.60;99.90;;;;;;5052143;28;20048;-65
2022/01/16 04:46:23;;;;;;;102.53;31.20;;;2.60;99.90;;;;;;5067225;28;20412;-65
2022/01/16 04:48:50;;;;;;;118.45;34.80;;;2.60;99.90;;;;;;5067145;28;20053;-65
2022/01/16 04:51:16;;;;;;;121.13;35.72;;;2.70;99.90;;;;;;5032990;28;20048;-65
2022/01/16 04:53:42;;;;;;;132.40;35.58;;;2.70;99.90;;;;;;5069506;28;20131;-65
2022/01/16 04:56:09;;;;;;;121.05;34.58;;;2.70;99.90;;;;;;5066487;28;20056;-65
2022/01/16 04:58:35;;;;;;;114.13;34.90;;;2.70;99.90;;;;;;5067989;28;20439;-66
2022/01/16 05:01:02;;;;;;;110.07;31.95;;;2.70;99.90;;;;;;5066819;28;20040;-66
2022/01/16 05:03:29;;;;;;;124.88;37.15;;;2.80;99.90;;;;;;5048265;28;20056;-66
2022/01/16 05:05:55;;;;;;;113.25;32.90;;;2.80;99.90;;;;;;5067357;28;20456;-66
2022/01/16 05:08:21;;;;;;;105.38;31.10;;;4.40;99.90;;;;;;5067716;28;20076;-66
2022/01/16 05:10:47;;;;;;;131.55;35.47;;;2.90;99.90;;;;;;5047442;28;20056;-65
2022/01/16 05:13:29;;;;;;;135.05;37.35;;;2.80;99.90;;;;;;5047211;28;20049;-65
2022/01/16 05:18:41;;;;;;;107.97;33.13;;;2.90;99.90;;;;;;5067200;28;20050;-66
2022/01/16 05:21:07;;;;;;;117.07;31.92;;;2.90;99.90;;;;;;5068869;28;20048;-65
2022/01/16 05:23:33;;;;;;;128.75;35.88;;;3.00;99.90;;;;;;5071042;28;20056;-65
2022/01/16 05:26:00;;;;;;;128.95;36.58;;;3.00;99.90;;;;;;5069595;28;20045;-66
2022/01/16 05:28:26;;;;;;;120.85;34.03;;;3.00;99.90;;;;;;5053130;28;20377;-66
2022/01/16 05:30:52;;;;;;;126.85;34.38;;;3.00;99.90;;;;;;5069741;28;20048;-66
2022/01/16 05:33:18;;;;;;;134.07;34.20;;;3.10;99.90;;;;;;5050534;28;20140;-67
2022/01/16 05:35:43;;;;;;;127.75;37.15;;;3.10;99.90;;;;;;5056193;28;20044;-65
2022/01/16 05:38:10;;;;;;;120.65;30.98;;;3.00;99.90;;;;;;5071195;28;20053;-64
2022/01/16 05:40:36;;;;;;;152.98;38.90;;;3.10;99.90;;;;;;5071053;28;20044;-65
2022/01/16 05:43:02;;;;;;;142.95;36.15;;;3.10;99.90;;;;;;5070016;28;20049;-65
2022/01/16 05:45:28;;;;;;;158.05;38.20;;;3.10;99.90;;;;;;5070344;28;20060;-65
2022/01/16 05:47:54;;;;;;;138.50;37.67;;;3.10;99.90;;;;;;5051767;28;20556;-65
2022/01/16 05:50:21;;;;;;;144.15;36.58;;;3.10;99.90;;;;;;5070178;28;20187;-65
2022/01/16 05:52:47;;;;;;;85.90;24.67;;;3.10;99.90;;;;;;5069847;28;20060;-65
2022/01/16 05:55:13;;;;;;;165.27;40.35;;;3.20;99.90;;;;;;5069659;28;20053;-65
2022/01/16 05:57:39;;;;;;;136.38;36.67;;;3.20;99.90;;;;;;5069742;28;20480;-66
2022/01/16 06:00:07;;;;;;;140.27;34.95;;;3.20;99.90;;;;;;5051943;28;20041;-65
2022/01/16 06:02:33;;;;;;;154.65;40.03;;;3.20;99.90;;;;;;5069751;28;20349;-66
2022/01/16 06:04:58;;;;;;;141.07;37.92;;;3.20;99.90;;;;;;5070004;28;20055;-66
2022/01/16 06:07:24;;;;;;;146.88;36.03;;;3.20;99.90;;;;;;5051494;28;20503;-65
2022/01/16 06:09:52;;;;;;;151.23;35.75;;;3.20;99.90;;;;;;5061351;28;20051;-65
2022/01/16 06:12:20;;;;;;;150.68;39.17;;;3.20;99.90;;;;;;5066339;28;20464;-66
2022/01/16 06:14:46;;;;;;;151.05;37.83;;;3.20;99.90;;;;;;5069921;28;20496;-66
2022/01/16 06:17:12;;;;;;;147.73;39.15;;;3.20;99.90;;;;;;5069317;28;20135;-66
2022/01/16 06:19:38;;;;;;;123.50;32.47;;;3.30;99.90;;;;;;5070501;28;20139;-66
2022/01/16 06:22:04;;;;;;;151.45;40.38;;;3.30;99.90;;;;;;5070291;28;20139;-65
2022/01/16 06:24:29;;;;;;;146.77;40.45;;;3.30;99.90;;;;;;5069945;28;20056;-66
2022/01/16 06:26:55;;;;;;;136.15;34.83;;;3.30;99.90;;;;;;5069827;28;20041;-66
2022/01/16 06:29:21;;;;;;;158.93;40.45;;;3.30;99.90;;;;;;5069459;28;20052;-66
2022/01/16 06:31:47;;;;;;;136.98;37.90;;;3.30;99.90;;;;;;5069064;28;20095;-65
2022/01/16 06:34:13;;;;;;;151.95;39.28;;;3.30;99.90;;;;;;5040079;28;20493;-66
2022/01/16 06:36:39;;;;;;;159.90;41.85;;;3.30;99.90;;;;;;5062762;28;20460;-66
2022/01/16 06:39:06;;;;;;;145.82;39.60;;;4.20;99.90;;;;;;5054340;28;20045;-66
2022/01/16 06:41:33;;;;;;;153.55;40.92;;;3.60;99.90;;;;;;5068386;28;20397;-66
2022/01/16 06:43:58;;;;;;;165.00;41.88;;;3.50;99.90;;;;;;5070185;28;20502;-65
2022/01/16 06:46:24;;;;;;;152.20;37.60;;;3.50;99.90;;;;;;5069321;28;20045;-65
2022/01/16 06:48:50;;;;;;;132.88;37.15;;;3.50;99.90;;;;;;5050096;28;20058;-66
2022/01/16 06:51:19;;;;;;;150.77;41.50;;;3.60;99.90;;;;;;5069253;28;20044;-66
2022/01/16 06:53:46;;;;;;;149.55;42.05;;;3.60;99.90;;;;;;5069196;28;20062;-66
2022/01/16 06:56:12;;;;;;;149.18;41.80;;;3.60;99.90;;;;;;5068317;28;20455;-65
2022/01/16 06:58:37;;;;;;;150.23;41.90;;;3.60;99.90;;;;;;5051132;28;20128;-66
2022/01/16 07:01:03;;;;;;;139.05;37.72;;;3.70;99.90;;;;;;5042870;28;20049;-66
2022/01/16 07:03:29;;;;;;;139.45;39.47;;;3.70;99.90;;;;;;5066643;28;20044;-65
2022/01/16 07:05:54;;;;;;;138.00;41.50;;;3.70;99.90;;;;;;5068338;28;20506;-66
2022/01/16 07:08:23;;;;;;;145.15;42.78;;;3.80;99.90;;;;;;5069070;28;20040;-67
2022/01/16 07:10:50;;;;;;;160.70;45.03;;;3.80;99.90;;;;;;5068069;28;20079;-67
2022/01/16 07:13:16;;;;;;;129.93;40.53;;;3.80;99.90;;;;;;5068412;28;20098;-67
2022/01/16 07:15:42;;;;;;;147.98;42.65;;;3.90;99.90;;;;;;5070988;28;20052;-67
2022/01/16 07:18:08;;;;;;;135.60;40.90;;;3.90;99.90;;;;;;5067664;28;20059;-67
2022/01/16 07:20:33;;;;;;;146.90;43.33;;;3.90;99.90;;;;;;5068888;28;20091;-67
2022/01/16 07:22:59;;;;;;;132.32;40.67;;;4.00;99.90;;;;;;5068540;28;20052;-67
2022/01/16 07:25:25;;;;;;;137.70;42.50;;;4.00;99.90;;;;;;5068414;28;20044;-67
2022/01/16 07:27:50;;;;;;;145.00;42.47;;;4.00;99.90;;;;;;5050679;28;20052;-67
2022/01/16 07:30:16;;;;;;;113.45;35.38;;;5.50;99.90;;;;;;5068504;28;20373;-67
2022/01/16 07:32:41;;;;;;;131.18;41.38;;;4.10;99.90;;;;;;5065258;28;20405;-67
2022/01/16 07:35:08;;;;;;;121.32;40.55;;;4.20;99.90;;;;;;5068949;28;20123;-67
2022/01/16 07:37:33;;;;;;;128.68;40.63;;;4.20;99.90;;;;;;5067644;28;20066;-67
2022/01/16 07:40:00;;;;;;;128.00;41.08;;;4.30;99.90;;;;;;5068733;28;20045;-67
2022/01/16 07:42:26;;;;;;;131.00;41.80;;;4.20;99.90;;;;;;5068059;28;20052;-65
2022/01/16 07:44:52;;;;;;;140.07;43.13;;;4.30;99.90;;;;;;5070085;28;20059;-65
2022/01/16 07:47:17;;;;;;;127.78;41.95;;;4.30;99.90;;;;;;5067657;28;20064;-65
2022/01/16 07:49:43;;;;;;;122.80;41.15;;;4.30;99.90;;;;;;5051558;28;20063;-65
2022/01/16 07:52:08;;;;;;;116.03;38.83;;;4.30;99.90;;;;;;5049454;28;20052;-65
2022/01/16 07:54:34;;;;;;;119.25;40.08;;;4.30;99.90;;;;;;5049990;28;20091;-65
2022/01/16 07:56:59;;;;;;;116.57;41.00;;;4.30;99.90;;;;;;5069728;28;20565;-65
2022/01/16 07:59:25;;;;;;;117.75;40.38;;;4.40;99.90;;;;;;5070213;28;20055;-65
2022/01/16 08:01:51;;;;;;;113.32;41.00;;;4.40;99.90;;;;;;5070267;28;20131;-67
2022/01/16 08:04:16;;;;;;;109.13;40.53;;;4.40;99.90;;;;;;5051086;28;20057;-67
2022/01/16 08:06:42;;;;;;;114.68;38.10;;;4.50;99.90;;;;;;5066287;28;20053;-65
2022/01/16 08:09:07;;;;;;;102.53;39.65;;;4.50;99.90;;;;;;5068772;28;20044;-65
2022/01/16 08:11:33;;;;;;;99.45;40.33;;;4.50;99.90;;;;;;5066974;28;20127;-65
2022/01/16 08:14:00;;;;;;;94.88;39.72;;;4.60;99.90;;;;;;5049569;28;20052;-65
2022/01/16 08:16:26;;;;;;;104.45;38.15;;;4.70;99.90;;;;;;5067624;28;20053;-65
2022/01/16 08:18:51;;;;;;;100.47;40.13;;;4.70;99.90;;;;;;5049618;28;20066;-65
2022/01/16 08:21:17;;;;;;;98.78;36.83;;;4.70;99.90;;;;;;5067369;28;20067;-65
2022/01/16 08:23:43;;;;;;;95.82;36.25;;;4.70;99.90;;;;;;5062849;28;20094;-65
2022/01/16 08:26:08;;;;;;;97.18;38.80;;;4.80;99.90;;;;;;5032553;28;20075;-65
2022/01/16 08:28:34;;;;;;;96.85;37.53;;;4.80;99.90;;;;;;5041300;28;20148;-66
2022/01/16 08:31:00;;;;;;;86.50;37.58;;;4.80;99.90;;;;;;5049843;28;20075;-68
2022/01/16 08:33:25;;;;;;;93.82;36.45;;;4.80;99.90;;;;;;5053205;28;20090;-65
2022/01/16 08:35:51;;;;;;;84.90;37.40;;;4.90;99.90;;;;;;5067049;28;20131;-65
2022/01/16 08:38:17;;;;;;;83.28;35.47;;;4.90;99.90;;;;;;5051310;28;20067;-65
2022/01/16 08:40:42;;;;;;;80.45;35.08;;;5.00;99.90;;;;;;5068270;28;20056;-65
2022/01/16 08:43:11;;;;;;;79.22;34.38;;;5.00;99.90;;;;;;5047945;28;20052;-66
2022/01/16 08:45:39;;;;;;;72.10;32.88;;;5.10;99.90;;;;;;5068805;28;20055;-66
2022/01/16 08:48:06;;;;;;;76.82;33.83;;;5.10;99.90;;;;;;5069418;28;20070;-66
2022/01/16 08:50:33;;;;;;;70.55;30.20;;;5.10;99.90;;;;;;5068814;28;20044;-66
2022/01/16 08:52:58;;;;;;;73.05;34.00;;;5.20;99.90;;;;;;5068027;28;20057;-66
2022/01/16 08:56:14;;;;;;;69.32;32.28;;;5.50;99.90;;;;;;5064642;22;20115;-66
2022/01/16 08:58:40;;;;;;;73.80;33.63;;;5.30;99.90;;;;;;4980261;28;20116;-66
2022/01/16 09:01:05;;;;;;;66.28;32.35;;;5.30;99.90;;;;;;4992732;28;20050;-66
2022/01/16 09:03:33;;;;;;;64.85;30.45;;;5.40;99.90;;;;;;4989545;28;20046;-66
2022/01/16 09:05:59;;;;;;;66.05;32.90;;;5.40;99.90;;;;;;4991478;28;20046;-66
2022/01/16 09:08:24;;;;;;;61.75;30.77;;;5.50;99.90;;;;;;4992237;28;20096;-66
2022/01/16 09:10:50;;;;;;;56.15;28.30;;;5.60;99.90;;;;;;4978357;28;20051;-66
2022/01/16 09:13:16;;;;;;;62.45;29.15;;;5.60;99.90;;;;;;4991692;28;20058;-66
2022/01/16 09:15:47;;;;;;;62.83;30.42;;;5.60;99.90;;;;;;4992046;28;20081;-65
2022/01/16 09:18:14;;;;;;;50.28;27.00;;;5.70;99.90;;;;;;4989367;28;20096;-65
2022/01/16 09:20:40;;;;;;;51.90;29.85;;;5.80;99.90;;;;;;4991583;28;20058;-65
2022/01/16 09:23:07;;;;;;;57.45;29.42;;;5.80;99.90;;;;;;4991642;28;20104;-65
2022/01/16 09:25:32;;;;;;;58.03;28.75;;;5.80;99.90;;;;;;4989508;28;20046;-65
2022/01/16 09:27:58;;;;;;;52.08;27.90;;;5.80;99.90;;;;;;4990415;28;20549;-65
2022/01/16 09:30:24;;;;;;;46.50;26.52;;;5.90;99.90;;;;;;4987404;28;20476;-65
2022/01/16 09:32:50;;;;;;;55.17;28.10;;;6.00;99.90;;;;;;4989306;28;20112;-65
2022/01/16 09:35:16;;;;;;;50.10;28.08;;;6.00;99.90;;;;;;4994547;28;20472;-65
2022/01/16 09:37:44;;;;;;;42.67;24.15;;;6.10;99.90;;;;;;4992433;28;20054;-66
2022/01/16 09:40:12;;;;;;;47.63;25.90;;;6.10;99.90;;;;;;4989767;28;20066;-65
2022/01/16 09:42:38;;;;;;;46.85;25.10;;;6.20;99.90;;;;;;4973627;28;20058;-66
2022/01/16 09:45:06;;;;;;;51.78;25.38;;;6.20;99.90;;;;;;4991138;28;20137;-66
2022/01/16 09:47:32;;;;;;;50.22;25.30;;;6.20;99.90;;;;;;4990288;28;20054;-66
2022/01/16 09:49:58;;;;;;;47.75;25.48;;;6.40;99.90;;;;;;4974633;28;20059;-65
2022/01/16 09:52:24;;;;;;;45.67;26.25;;;6.80;99.90;;;;;;4990995;28;20124;-66
2022/01/16 09:54:50;;;;;;;47.38;24.77;;;6.20;99.90;;;;;;4989372;28;20464;-66
2022/01/16 09:57:17;;;;;;;50.10;26.60;;;6.20;99.90;;;;;;4973349;28;20125;-66
2022/01/16 09:59:46;;;;;;;46.05;24.05;;;6.20;99.90;;;;;;4973777;28;20089;-65
2022/01/16 10:02:12;;;;;;;48.08;25.70;;;6.20;99.90;;;;;;4990504;28;20054;-65
2022/01/16 10:04:43;;;;;;;43.47;22.80;;;6.30;99.90;;;;;;4990916;28;20046;-65
2022/01/16 10:07:13;;;;;;;48.03;25.30;;;6.30;99.90;;;;;;4990576;28;20054;-66
2022/01/16 10:09:42;;;;;;;44.10;21.23;;;6.30;99.90;;;;;;4993698;28;20050;-65
2022/01/16 10:12:17;;;;;;;46.55;24.50;;;6.40;99.90;;;;;;4990725;28;20138;-65
2022/01/16 10:14:48;;;;;;;46.97;25.38;;;6.40;99.90;;;;;;4989803;28;20462;-65
2022/01/16 10:17:19;;;;;;;46.20;24.75;;;6.30;99.90;;;;;;4991151;28;20133;-65
2022/01/16 10:19:45;;;;;;;48.13;24.45;;;6.60;99.90;;;;;;4973106;28;20189;-66
2022/01/16 10:22:13;;;;;;;43.40;22.77;;;6.60;99.90;;;;;;4990671;28;20054;-66
2022/01/16 10:24:40;;;;;;;46.25;23.95;;;6.60;99.90;;;;;;4990679;28;20519;-66
2022/01/16 10:27:09;;;;;;;47.03;24.13;;;6.60;99.90;;;;;;4989604;28;20058;-66
2022/01/16 10:29:48;;;;;;;41.42;22.92;;;6.70;99.90;;;;;;4988706;28;20090;-66
2022/01/16 10:32:17;;;;;;;49.67;23.20;;;6.70;99.90;;;;;;4980416;28;20109;-65
2022/01/16 10:34:43;;;;;;;47.72;23.75;;;6.80;99.90;;;;;;4989003;28;20328;-66
2022/01/16 10:37:19;;;;;;;41.70;21.40;;;6.80;99.90;;;;;;4973075;28;20427;-65
2022/01/16 10:40:09;;;;;;;46.45;22.35;;;6.90;99.90;;;;;;4973292;28;20124;-67
2022/01/16 10:42:36;;;;;;;46.70;20.52;;;6.90;99.90;;;;;;4989276;28;20073;-67
2022/01/16 10:45:04;;;;;;;39.83;20.85;;;6.90;99.90;;;;;;4989556;28;20055;-67
2022/01/16 10:47:32;;;;;;;40.95;22.08;;;7.00;99.90;;;;;;4989595;28;20402;-66
2022/01/16 10:50:18;;;;;;;46.03;23.52;;;7.00;99.90;;;;;;4972942;28;20152;-66
2022/01/16 10:53:16;;;;;;;42.15;20.92;;;7.00;99.90;;;;;;4993958;28;20046;-66
2022/01/16 10:55:47;;;;;;;42.15;21.17;;;7.00;99.90;;;;;;4970253;28;20098;-66
2022/01/16 10:58:22;;;;;;;40.33;21.70;;;7.10;99.90;;;;;;4971782;28;20042;-66
2022/01/16 11:00:52;;;;;;;37.25;18.80;;;7.10;99.90;;;;;;4990582;28;20086;-66
2022/01/16 11:03:19;;;;;;;38.08;21.83;;;7.00;99.90;;;;;;4988424;28;20050;-66
2022/01/16 11:05:46;;;;;;;40.45;21.20;;;7.10;99.90;;;;;;4990411;28;20069;-66
2022/01/16 11:08:17;;;;;;;38.10;20.52;;;7.10;99.90;;;;;;4972632;28;20047;-66
2022/01/16 11:10:45;;;;;;;43.72;20.42;;;7.10;99.90;;;;;;4986852;28;20066;-65
2022/01/16 11:13:13;;;;;;;40.78;20.85;;;7.10;99.90;;;;;;4989558;28;20057;-65
2022/01/16 11:15:43;;;;;;;38.95;19.60;;;7.10;99.90;;;;;;4989441;28;20409;-65
2022/01/16 11:18:10;;;;;;;35.60;18.13;;;7.10;99.90;;;;;;4992340;28;20448;-65
2022/01/16 11:20:38;;;;;;;34.00;17.45;;;7.20;99.90;;;;;;4989659;28;20050;-66
2022/01/16 11:25:37;;;;;;;36.97;19.27;;;7.20;99.90;;;;;;4989645;28;20050;-66
2022/01/16 11:28:18;;;;;;;35.10;18.20;;;7.20;99.90;;;;;;4968171;28;20050;-65
2022/01/16 11:30:49;;;;;;;37.05;17.73;;;7.20;99.90;;;;;;4988909;28;20129;-66
2022/01/16 11:33:16;;;;;;;36.63;16.25;;;7.20;99.90;;;;;;4988293;28;20137;-65
2022/01/16 11:35:50;;;;;;;37.20;16.90;;;7.20;99.90;;;;;;4987862;28;20050;-67
2022/01/16 11:38:19;;;;;;;30.23;16.17;;;7.30;99.90;;;;;;4987056;28;20097;-67
2022/01/16 11:40:46;;;;;;;33.63;16.80;;;7.30;99.90;;;;;;4954836;28;20093;-66
2022/01/16 11:43:12;;;;;;;31.73;16.52;;;7.30;99.90;;;;;;4990223;28;20176;-69
2022/01/16 11:45:51;;;;;;;30.75;16.50;;;7.30;99.90;;;;;;4986242;28;20060;-70
2022/01/16 11:48:47;;;;;;;28.02;13.93;;;7.30;99.90;;;;;;4985569;28;20058;-69
2022/01/16 11:51:39;;;;;;;32.28;14.48;;;7.40;99.90;;;;;;4953801;28;20117;-71
2022/01/16 11:54:19;;;;;;;22.30;12.48;;;7.40;99.90;;;;;;4976205;28;20066;-68
2022/01/16 11:56:44;;;;;;;29.42;14.30;;;7.40;99.90;;;;;;4958441;28;20427;-68
2022/01/16 11:59:23;;;;;;;26.27;13.90;;;7.40;99.90;;;;;;4984957;28;20153;-68
2022/01/16 12:02:00;;;;;;;24.35;12.48;;;7.40;99.90;;;;;;4983910;28;20371;-68
2022/01/16 12:04:31;;;;;;;29.67;12.75;;;7.40;99.90;;;;;;4985846;28;20067;-68
2022/01/16 12:07:12;;;;;;;25.17;12.18;;;7.80;99.90;;;;;;4984062;28;20080;-68
2022/01/16 12:09:48;;;;;;;26.17;11.05;;;7.50;99.90;;;;;;4962469;28;20073;-68
2022/01/16 12:12:13;;;;;;;21.33;10.82;;;7.50;99.90;;;;;;4962536;28;20155;-67
2022/01/16 12:14:52;;;;;;;23.25;10.40;;;7.60;99.90;;;;;;4969522;28;20046;-68
2022/01/16 12:17:33;;;;;;;17.70;9.82;;;7.50;99.90;;;;;;4988435;28;20136;-67
2022/01/16 12:20:12;;;;;;;26.48;10.75;;;7.60;99.90;;;;;;4966883;28;20089;-68
2022/01/16 12:23:05;;;;;;;22.90;9.02;;;7.60;99.90;;;;;;4966775;28;20074;-67
2022/01/16 12:25:54;;;;;;;23.95;8.55;;;7.60;99.90;;;;;;4985781;28;20050;-68
2022/01/16 12:28:23;;;;;;;21.13;8.93;;;7.60;99.90;;;;;;4947697;28;20062;-67
2022/01/16 12:30:55;;;;;;;17.08;8.57;;;7.20;99.90;;;;;;4966340;28;20054;-68
2022/01/16 12:33:57;;;;;;;20.35;9.18;;;7.50;99.90;;;;;;4985073;28;20042;-68
2022/01/16 12:36:34;;;;;;;19.05;8.77;;;7.60;99.90;;;;;;4975662;28;20410;-68
2022/01/16 12:39:01;;;;;;;21.38;8.65;;;6.80;99.90;;;;;;4986962;28;20065;-65
2022/01/16 12:41:39;;;;;;;24.25;8.93;;;7.60;99.90;;;;;;4987041;28;20061;-65
2022/01/16 12:44:09;;;;;;;21.75;9.50;;;7.60;99.90;;;;;;4971876;28;20069;-65
2022/01/16 12:46:44;;;;;;;19.40;8.27;;;7.70;99.90;;;;;;4990189;28;20046;-65
2022/01/16 12:49:15;;;;;;;19.05;7.57;;;7.60;99.90;;;;;;4988981;28;20058;-65
2022/01/16 12:51:44;;;;;;;19.48;8.30;;;7.70;99.90;;;;;;4988235;28;20406;-65
2022/01/16 12:54:15;;;;;;;19.38;7.90;;;7.60;99.90;;;;;;4987573;28;20061;-65
2022/01/16 12:56:50;;;;;;;16.15;8.13;;;7.70;99.90;;;;;;4969799;28;20390;-65
2022/01/16 12:59:30;;;;;;;17.88;7.97;;;7.70;99.90;;;;;;4990131;28;20128;-65
2022/01/16 13:01:58;;;;;;;17.70;8.07;;;7.70;99.90;;;;;;4970789;28;20058;-65
2022/01/16 13:04:28;;;;;;;18.25;7.13;;;7.70;99.90;;;;;;4981892;28;20094;-65
2022/01/16 13:06:57;;;;;;;19.65;7.38;;;7.70;99.90;;;;;;4985535;28;20125;-65
2022/01/16 13:09:23;;;;;;;15.65;7.57;;;8.60;99.90;;;;;;4987322;28;20466;-65
2022/01/16 13:11:51;;;;;;;16.63;7.38;;;7.70;99.90;;;;;;4987082;28;20125;-64
2022/01/16 13:14:20;;;;;;;21.77;8.35;;;7.70;99.90;;;;;;4970816;28;20050;-65
2022/01/16 13:16:50;;;;;;;16.45;8.07;;;7.70;99.90;;;;;;4988365;28;20058;-64
2022/01/16 13:19:22;;;;;;;16.73;6.80;;;7.70;99.90;;;;;;4988068;28;20054;-66
2022/01/16 13:22:12;;;;;;;16.35;7.60;;;7.70;99.90;;;;;;4989171;28;20059;-65
2022/01/16 13:24:55;;;;;;;17.67;7.35;;;7.70;99.90;;;;;;4966821;28;20250;-65
2022/01/16 13:27:32;;;;;;;18.45;7.97;;;7.70;99.90;;;;;;4968716;28;20059;-65